createdAt,value
2023-04-30T00:00:43.783Z,8.20
2023-04-30T00:02:15.764Z,8.70
2023-04-30T00:03:47.667Z,8.18
2023-04-30T00:05:19.518Z,8.48
2023-04-30T00:06:51.290Z,8.93
2023-04-30T00:08:23.192Z,8.25
2023-04-30T00:09:55.208Z,7.55
2023-04-30T00:11:27.189Z,8.43
2023-04-30T00:12:59.016Z,7.80
2023-04-30T00:14:31.003Z,7.93
2023-04-30T00:16:02.857Z,7.82
2023-04-30T00:17:34.660Z,8.00
2023-04-30T00:19:06.635Z,7.90
2023-04-30T00:20:38.470Z,7.45
2023-04-30T00:22:10.491Z,6.88
2023-04-30T00:23:42.347Z,7.28
2023-04-30T00:25:14.254Z,7.28
2023-04-30T00:26:46.238Z,7.20
2023-04-30T00:28:18.082Z,7.32
2023-04-30T00:29:49.869Z,7.97
2023-04-30T00:31:21.669Z,7.10
2023-04-30T00:32:53.557Z,6.63
2023-04-30T00:34:25.796Z,6.80
2023-04-30T00:35:57.626Z,6.78
2023-04-30T00:37:29.443Z,6.28
2023-04-30T00:39:01.236Z,6.18
2023-04-30T00:40:35.367Z,6.70
2023-04-30T00:42:07.225Z,6.53
2023-04-30T00:43:39.116Z,6.55
2023-04-30T00:45:12.056Z,6.45
2023-04-30T00:46:43.918Z,6.45
2023-04-30T00:48:16.503Z,6.53
2023-04-30T00:49:48.646Z,6.03
2023-04-30T00:51:21.000Z,5.80
2023-04-30T00:52:52.993Z,5.35
2023-04-30T00:54:25.652Z,5.65
2023-04-30T00:55:57.998Z,5.47
2023-04-30T00:57:31.039Z,4.55
2023-04-30T00:59:02.953Z,5.57
2023-04-30T01:00:35.059Z,5.72
2023-04-30T01:02:06.999Z,4.93
2023-04-30T01:03:39.588Z,4.85
2023-04-30T01:05:12.650Z,5.20
2023-04-30T01:06:44.647Z,5.40
2023-04-30T01:08:16.614Z,4.95
2023-04-30T01:09:48.811Z,5.53
2023-04-30T01:11:26.427Z,5.60
2023-04-30T01:13:17.336Z,5.43
2023-04-30T01:15:02.205Z,5.63
2023-04-30T01:16:40.710Z,4.78
2023-04-30T01:18:34.033Z,4.90
2023-04-30T01:20:09.926Z,4.93
2023-04-30T01:21:43.416Z,5.25
2023-04-30T01:23:43.917Z,5.55
2023-04-30T01:25:46.945Z,6.18
2023-04-30T01:27:42.336Z,6.35
2023-04-30T01:29:16.961Z,6.10
2023-04-30T01:30:49.377Z,6.28
2023-04-30T01:32:21.231Z,5.97
2023-04-30T01:33:53.060Z,6.30
2023-04-30T01:35:47.005Z,6.38
2023-04-30T01:37:36.692Z,6.38
2023-04-30T01:39:17.091Z,6.32
2023-04-30T01:40:58.134Z,6.03
2023-04-30T01:42:45.946Z,6.75
2023-04-30T01:44:55.348Z,6.55
2023-04-30T01:46:30.687Z,6.07
2023-04-30T01:48:17.205Z,6.20
2023-04-30T01:49:58.185Z,6.38
2023-04-30T01:51:41.462Z,6.30
2023-04-30T01:53:28.092Z,6.63
2023-04-30T01:55:08.270Z,6.95
2023-04-30T01:56:50.254Z,6.28
2023-04-30T01:58:24.958Z,6.53
2023-04-30T01:59:57.088Z,6.20
2023-04-30T02:01:31.642Z,6.30
2023-04-30T02:03:03.949Z,6.10
2023-04-30T02:04:36.602Z,5.85
2023-04-30T02:06:09.157Z,5.78
2023-04-30T02:07:45.007Z,6.30
2023-04-30T02:09:16.854Z,5.50
2023-04-30T02:10:48.665Z,5.80
2023-04-30T02:12:20.445Z,5.53
2023-04-30T02:13:52.260Z,6.40
2023-04-30T02:15:24.280Z,5.85
2023-04-30T02:16:56.109Z,6.63
2023-04-30T02:18:27.946Z,6.10
2023-04-30T02:20:00.390Z,5.63
2023-04-30T02:21:32.193Z,5.90
2023-04-30T02:23:04.032Z,5.43
2023-04-30T02:24:36.371Z,5.55
2023-04-30T02:26:08.718Z,6.00
2023-04-30T02:27:40.668Z,5.18
2023-04-30T02:29:12.559Z,5.22
2023-04-30T02:30:44.377Z,4.65
2023-04-30T02:32:16.421Z,5.00
2023-04-30T02:33:48.242Z,4.95
2023-04-30T02:35:20.009Z,4.60
2023-04-30T02:36:51.960Z,4.95
2023-04-30T02:38:23.786Z,4.75
2023-04-30T02:39:56.511Z,4.55
2023-04-30T02:41:30.759Z,4.68
2023-04-30T02:43:02.571Z,4.35
2023-04-30T02:44:34.859Z,4.13
2023-04-30T02:46:06.967Z,4.00
2023-04-30T02:47:38.876Z,4.68
2023-04-30T02:49:10.877Z,4.10
2023-04-30T02:50:42.764Z,4.90
2023-04-30T02:52:14.558Z,4.53
2023-04-30T02:53:46.422Z,4.13
2023-04-30T02:55:18.489Z,3.97
2023-04-30T02:56:50.432Z,3.70
2023-04-30T02:58:22.246Z,4.05
2023-04-30T02:59:55.272Z,3.50
2023-04-30T03:01:27.800Z,3.63
2023-04-30T03:02:59.824Z,3.30
2023-04-30T03:04:32.736Z,3.22
2023-04-30T03:06:05.464Z,3.47
2023-04-30T03:07:37.378Z,3.50
2023-04-30T03:09:09.441Z,3.15
2023-04-30T03:10:41.375Z,3.70
2023-04-30T03:12:14.773Z,2.90
2023-04-30T03:13:46.722Z,3.13
2023-04-30T03:15:18.592Z,3.40
2023-04-30T03:16:50.759Z,3.22
2023-04-30T03:18:22.533Z,3.00
2023-04-30T03:19:54.488Z,2.90
2023-04-30T03:21:26.543Z,3.60
2023-04-30T03:22:58.325Z,3.03
2023-04-30T03:24:31.007Z,3.15
2023-04-30T03:26:02.908Z,3.08
2023-04-30T03:27:34.826Z,3.15
2023-04-30T03:29:06.637Z,2.90
2023-04-30T03:30:38.523Z,3.35
2023-04-30T03:32:10.735Z,2.63
2023-04-30T03:33:42.668Z,2.90
2023-04-30T03:35:14.618Z,2.67
2023-04-30T03:36:46.500Z,3.05
2023-04-30T03:38:18.357Z,2.88
2023-04-30T03:39:50.147Z,3.10
2023-04-30T03:41:24.420Z,3.25
2023-04-30T03:42:56.385Z,3.05
2023-04-30T03:44:28.389Z,3.47
2023-04-30T03:46:00.346Z,3.35
2023-04-30T03:47:33.440Z,2.75
2023-04-30T03:49:05.256Z,3.10
2023-04-30T03:50:37.085Z,3.30
2023-04-30T03:52:08.917Z,3.00
2023-04-30T03:53:40.825Z,3.05
2023-04-30T03:55:14.244Z,3.00
2023-04-30T03:56:46.169Z,3.17
2023-04-30T03:58:18.164Z,3.00
2023-04-30T03:59:50.875Z,2.90
2023-04-30T04:01:23.113Z,3.10
2023-04-30T04:02:55.419Z,3.15
2023-04-30T04:04:27.350Z,2.95
2023-04-30T04:05:59.224Z,3.20
2023-04-30T04:07:31.248Z,3.05
2023-04-30T04:09:04.592Z,2.95
2023-04-30T04:10:36.467Z,2.90
2023-04-30T04:12:08.355Z,2.65
2023-04-30T04:13:41.331Z,3.30
2023-04-30T04:15:13.538Z,3.20
2023-04-30T04:16:45.800Z,2.53
2023-04-30T04:18:17.661Z,3.28
2023-04-30T04:19:49.657Z,2.95
2023-04-30T04:21:23.074Z,3.22
2023-04-30T04:22:54.906Z,2.70
2023-04-30T04:24:27.004Z,2.75
2023-04-30T04:25:58.894Z,2.70
2023-04-30T04:27:30.743Z,2.85
2023-04-30T04:29:04.458Z,2.97
2023-04-30T04:30:36.961Z,2.55
2023-04-30T04:32:10.546Z,2.72
2023-04-30T04:33:44.171Z,2.90
2023-04-30T04:35:17.174Z,2.95
2023-04-30T04:36:49.440Z,2.85
2023-04-30T04:38:21.579Z,3.00
2023-04-30T04:39:53.837Z,2.90
2023-04-30T04:41:26.859Z,2.70
2023-04-30T04:42:58.747Z,2.63
2023-04-30T04:44:30.634Z,2.60
2023-04-30T04:46:02.467Z,3.20
2023-04-30T04:47:34.442Z,2.92
2023-04-30T04:49:06.768Z,2.85
2023-04-30T04:50:38.666Z,2.63
2023-04-30T04:52:10.568Z,2.60
2023-04-30T04:53:42.374Z,2.70
2023-04-30T04:55:15.896Z,2.67
2023-04-30T04:56:47.922Z,2.30
2023-04-30T04:58:20.979Z,2.85
2023-04-30T04:59:53.281Z,2.80
2023-04-30T05:01:25.302Z,2.88
2023-04-30T05:02:57.480Z,3.13
2023-04-30T05:04:30.661Z,2.92
2023-04-30T05:06:03.097Z,3.20
2023-04-30T05:07:35.384Z,2.72
2023-04-30T05:09:09.587Z,2.78
2023-04-30T05:10:41.402Z,2.63
2023-04-30T05:12:14.321Z,2.95
2023-04-30T05:13:46.123Z,2.63
2023-04-30T05:15:18.021Z,3.00
2023-04-30T05:16:50.040Z,3.10
2023-04-30T05:18:21.845Z,2.97
2023-04-30T05:19:53.906Z,3.22
2023-04-30T05:21:29.788Z,2.80
2023-04-30T05:23:01.721Z,2.83
2023-04-30T05:24:34.342Z,3.30
2023-04-30T05:26:06.190Z,3.17
2023-04-30T05:27:38.797Z,3.05
2023-04-30T05:29:12.336Z,3.20
2023-04-30T05:30:44.129Z,3.42
2023-04-30T05:32:16.192Z,3.47
2023-04-30T05:33:48.619Z,3.00
2023-04-30T05:35:20.418Z,3.00
2023-04-30T05:36:52.288Z,3.03
2023-04-30T05:38:24.135Z,2.88
2023-04-30T05:39:56.411Z,2.45
2023-04-30T05:41:28.401Z,2.45
2023-04-30T05:43:00.189Z,2.28
2023-04-30T05:44:32.075Z,2.30
2023-04-30T05:46:04.314Z,2.95
2023-04-30T05:47:36.187Z,2.35
2023-04-30T05:49:08.002Z,2.13
2023-04-30T05:50:39.890Z,2.20
2023-04-30T05:52:12.173Z,2.17
2023-04-30T05:53:43.968Z,2.40
2023-04-30T05:55:16.039Z,2.30
2023-04-30T05:56:48.011Z,2.22
2023-04-30T05:58:19.800Z,2.40
2023-04-30T05:59:51.621Z,2.00
2023-04-30T06:01:23.926Z,2.17
2023-04-30T06:02:55.804Z,2.00
2023-04-30T06:04:27.674Z,2.33
2023-04-30T06:05:59.533Z,2.28
2023-04-30T06:07:31.390Z,2.50
2023-04-30T06:09:03.621Z,2.50
2023-04-30T06:10:35.778Z,2.35
2023-04-30T06:12:07.557Z,2.20
2023-04-30T06:13:39.874Z,2.40
2023-04-30T06:15:11.760Z,2.10
2023-04-30T06:16:45.243Z,1.88
2023-04-30T06:18:17.159Z,1.90
2023-04-30T06:19:49.021Z,2.13
2023-04-30T06:21:21.168Z,2.05
2023-04-30T06:22:53.273Z,2.50
2023-04-30T06:24:27.704Z,1.80
2023-04-30T06:25:59.592Z,2.00
2023-04-30T06:27:32.608Z,1.90
2023-04-30T06:29:05.236Z,1.98
2023-04-30T06:30:37.528Z,1.90
2023-04-30T06:32:09.329Z,2.00
2023-04-30T06:33:41.192Z,2.03
2023-04-30T06:35:13.049Z,2.33
2023-04-30T06:36:44.845Z,2.03
2023-04-30T06:38:18.310Z,2.00
2023-04-30T06:39:50.399Z,2.00
2023-04-30T06:41:22.655Z,1.95
2023-04-30T06:42:54.765Z,2.42
2023-04-30T06:44:26.873Z,1.83
2023-04-30T06:45:58.830Z,1.83
2023-04-30T06:47:38.503Z,2.10
2023-04-30T06:49:10.409Z,1.95
2023-04-30T06:50:45.280Z,2.15
2023-04-30T06:52:17.090Z,2.00
2023-04-30T06:53:48.878Z,1.83
2023-04-30T06:55:20.963Z,1.85
2023-04-30T06:56:52.959Z,1.70
2023-04-30T06:58:24.942Z,1.60
2023-04-30T06:59:57.332Z,1.60
2023-04-30T07:01:29.300Z,1.90
2023-04-30T07:03:02.902Z,2.10
2023-04-30T07:04:34.780Z,1.83
2023-04-30T07:06:06.728Z,1.60
2023-04-30T07:07:38.740Z,2.10
2023-04-30T07:09:11.177Z,1.90
2023-04-30T07:10:43.095Z,1.70
2023-04-30T07:12:14.945Z,1.63
2023-04-30T07:13:46.784Z,2.20
2023-04-30T07:15:18.689Z,1.83
2023-04-30T07:16:51.107Z,2.03
2023-04-30T07:18:22.963Z,2.05
2023-04-30T07:19:55.131Z,2.17
2023-04-30T07:21:27.774Z,2.00
2023-04-30T07:22:59.610Z,2.13
2023-04-30T07:24:31.415Z,2.20
2023-04-30T07:26:03.251Z,2.00
2023-04-30T07:27:35.106Z,1.63
2023-04-30T07:29:06.922Z,1.95
2023-04-30T07:30:38.753Z,1.70
2023-04-30T07:32:11.133Z,1.90
2023-04-30T07:33:42.927Z,2.10
2023-04-30T07:35:15.001Z,1.80
2023-04-30T07:36:48.637Z,1.85
2023-04-30T07:38:20.484Z,1.80
2023-04-30T07:39:52.549Z,1.67
2023-04-30T07:41:26.106Z,1.92
2023-04-30T07:42:57.884Z,1.88
2023-04-30T07:44:30.156Z,1.75
2023-04-30T07:46:02.629Z,1.55
2023-04-30T07:47:34.625Z,1.55
2023-04-30T07:49:06.447Z,1.40
2023-04-30T07:50:38.323Z,1.27
2023-04-30T07:52:11.316Z,1.50
2023-04-30T07:53:43.132Z,1.80
2023-04-30T07:55:14.986Z,1.52
2023-04-30T07:56:49.015Z,1.50
2023-04-30T07:58:20.836Z,1.52
2023-04-30T07:59:54.346Z,1.52
2023-04-30T08:01:26.497Z,1.55
2023-04-30T08:03:00.854Z,1.55
2023-04-30T08:04:32.995Z,1.60
2023-04-30T08:06:06.156Z,1.60
2023-04-30T08:07:38.049Z,1.80
2023-04-30T08:09:09.868Z,1.55
2023-04-30T08:10:42.139Z,2.00
2023-04-30T08:12:13.937Z,2.00
2023-04-30T08:13:46.792Z,1.52
2023-04-30T08:15:21.955Z,1.75
2023-04-30T08:16:53.841Z,1.90
2023-04-30T08:18:25.770Z,1.67
2023-04-30T08:19:57.546Z,1.83
2023-04-30T08:21:29.365Z,1.45
2023-04-30T08:23:01.156Z,1.60
2023-04-30T08:24:32.946Z,1.85
2023-04-30T08:26:04.968Z,1.55
2023-04-30T08:27:36.810Z,1.55
2023-04-30T08:29:08.627Z,1.70
2023-04-30T08:30:40.469Z,1.60
2023-04-30T08:32:12.456Z,1.60
2023-04-30T08:33:44.398Z,1.70
2023-04-30T08:35:17.247Z,1.65
2023-04-30T08:36:49.099Z,1.55
2023-04-30T08:38:21.084Z,1.77
2023-04-30T08:39:53.096Z,2.33
2023-04-30T08:41:27.166Z,1.40
2023-04-30T08:43:07.871Z,1.27
2023-04-30T08:44:42.460Z,1.65
2023-04-30T08:46:15.493Z,1.50
2023-04-30T08:47:49.027Z,1.52
2023-04-30T08:49:25.317Z,1.40
2023-04-30T08:51:01.289Z,1.40
2023-04-30T08:52:35.547Z,1.40
2023-04-30T08:54:12.779Z,1.60
2023-04-30T08:55:45.224Z,1.60
2023-04-30T08:57:17.084Z,1.70
2023-04-30T08:58:48.864Z,1.50
2023-04-30T09:00:20.829Z,1.40
2023-04-30T09:01:53.965Z,1.40
2023-04-30T09:03:26.496Z,1.40
2023-04-30T09:04:58.408Z,1.40
2023-04-30T09:06:31.658Z,1.63
2023-04-30T09:08:04.518Z,1.25
2023-04-30T09:09:39.877Z,1.70
2023-04-30T09:11:27.852Z,1.65
2023-04-30T09:13:01.464Z,1.55
2023-04-30T09:14:35.344Z,1.42
2023-04-30T09:16:07.325Z,1.80
2023-04-30T09:17:39.520Z,1.85
2023-04-30T09:19:29.511Z,1.70
2023-04-30T09:21:03.141Z,1.70
2023-04-30T09:22:37.037Z,1.55
2023-04-30T09:24:08.820Z,1.88
2023-04-30T09:25:41.927Z,1.75
2023-04-30T09:27:22.385Z,1.58
2023-04-30T09:28:57.142Z,1.70
2023-04-30T09:30:34.940Z,1.58
2023-04-30T09:32:09.146Z,1.73
2023-04-30T09:33:46.808Z,1.80
2023-04-30T09:35:32.919Z,1.80
2023-04-30T09:37:04.821Z,1.80
2023-04-30T09:38:36.737Z,1.40
2023-04-30T09:40:09.324Z,1.70
2023-04-30T09:41:42.451Z,1.63
2023-04-30T09:43:14.256Z,1.63
2023-04-30T09:44:47.040Z,2.05
2023-04-30T09:46:20.668Z,1.60
2023-04-30T09:47:55.635Z,1.60
2023-04-30T09:49:32.247Z,1.40
2023-04-30T09:51:04.221Z,1.50
2023-04-30T09:52:38.561Z,1.50
2023-04-30T09:54:11.861Z,1.63
2023-04-30T09:55:46.041Z,1.30
2023-04-30T09:57:21.101Z,1.67
2023-04-30T09:58:55.692Z,1.33
2023-04-30T10:00:27.554Z,1.95
2023-04-30T10:02:01.504Z,1.73
2023-04-30T10:03:34.147Z,1.60
2023-04-30T10:05:06.720Z,1.38
2023-04-30T10:06:39.645Z,1.35
2023-04-30T10:08:36.531Z,1.38
2023-04-30T10:10:11.027Z,1.42
2023-04-30T10:11:46.994Z,1.55
2023-04-30T10:13:20.950Z,1.27
2023-04-30T10:14:59.853Z,1.40
2023-04-30T10:16:53.208Z,1.25
2023-04-30T10:18:36.548Z,1.30
2023-04-30T10:21:45.562Z,1.50
2023-04-30T10:23:17.538Z,1.70
2023-04-30T10:24:50.712Z,1.30
2023-04-30T10:26:23.757Z,1.27
2023-04-30T10:27:56.019Z,1.50
2023-04-30T10:29:27.793Z,1.75
2023-04-30T10:30:59.696Z,1.55
2023-04-30T10:32:38.127Z,1.90
2023-04-30T10:34:22.195Z,1.58
2023-04-30T10:36:02.183Z,1.40
2023-04-30T10:37:50.663Z,1.30
2023-04-30T10:39:24.095Z,1.80
2023-04-30T10:41:01.512Z,1.40
2023-04-30T10:42:35.870Z,1.10
2023-04-30T10:44:08.115Z,1.20
2023-04-30T10:45:47.384Z,1.45
2023-04-30T10:47:19.522Z,1.42
2023-04-30T10:48:54.411Z,1.60
2023-04-30T10:50:26.244Z,1.40
2023-04-30T10:52:05.291Z,1.50
2023-04-30T10:53:40.365Z,1.40
2023-04-30T10:55:17.359Z,1.50
2023-04-30T10:56:51.639Z,1.30
2023-04-30T10:58:30.052Z,1.35
2023-04-30T11:00:07.762Z,1.67
2023-04-30T11:01:58.387Z,1.33
2023-04-30T11:03:31.302Z,1.40
2023-04-30T11:05:16.022Z,1.27
2023-04-30T11:06:56.728Z,1.08
2023-04-30T11:08:40.296Z,1.20
2023-04-30T11:10:14.814Z,1.08
2023-04-30T11:11:47.729Z,1.13
2023-04-30T11:13:19.914Z,1.20
2023-04-30T11:14:51.826Z,1.55
2023-04-30T11:16:34.557Z,1.13
2023-04-30T11:18:08.001Z,1.20
2023-04-30T11:19:47.939Z,1.20
2023-04-30T11:21:21.450Z,1.13
2023-04-30T11:23:39.457Z,1.23
2023-04-30T11:25:13.570Z,1.45
2023-04-30T11:27:06.502Z,1.35
2023-04-30T11:28:38.781Z,1.15
2023-04-30T11:30:18.334Z,1.50
2023-04-30T11:31:50.436Z,1.60
2023-04-30T11:33:23.959Z,1.70
2023-04-30T11:34:56.243Z,1.17
2023-04-30T11:36:31.038Z,1.30
2023-04-30T11:38:04.315Z,0.98
2023-04-30T11:39:37.620Z,0.93
2023-04-30T11:41:12.980Z,1.30
2023-04-30T11:42:46.457Z,1.10
2023-04-30T11:44:28.016Z,1.15
2023-04-30T11:47:48.112Z,1.13
2023-04-30T11:49:22.700Z,1.20
2023-04-30T11:50:54.484Z,1.10
2023-04-30T11:52:27.161Z,1.00
2023-04-30T11:53:58.972Z,1.30
2023-04-30T11:55:30.799Z,1.00
2023-04-30T11:57:04.545Z,0.82
2023-04-30T11:58:38.831Z,1.02
2023-04-30T12:00:13.258Z,0.88
2023-04-30T12:01:45.282Z,1.75
2023-04-30T12:03:17.662Z,1.23
2023-04-30T12:04:49.613Z,0.98
2023-04-30T12:06:23.615Z,1.00
2023-04-30T12:07:58.240Z,0.80
2023-04-30T12:09:30.335Z,0.98
2023-04-30T12:11:02.163Z,1.13
2023-04-30T12:12:37.340Z,1.00
2023-04-30T12:14:12.770Z,1.00
2023-04-30T12:15:58.261Z,1.05
2023-04-30T12:17:36.615Z,0.85
2023-04-30T12:19:09.799Z,0.70
2023-04-30T12:20:42.292Z,1.00
2023-04-30T12:22:14.366Z,0.80
2023-04-30T12:23:46.183Z,0.73
2023-04-30T12:25:19.770Z,0.93
2023-04-30T12:26:53.985Z,1.10
2023-04-30T12:28:25.843Z,0.80
2023-04-30T12:29:57.694Z,0.88
2023-04-30T12:31:32.110Z,0.80
2023-04-30T12:33:04.104Z,0.82
2023-04-30T12:34:38.610Z,1.20
2023-04-30T12:36:11.556Z,0.80
2023-04-30T12:37:45.274Z,0.90
2023-04-30T12:39:17.091Z,1.08
2023-04-30T12:40:49.306Z,1.00
2023-04-30T12:42:21.436Z,1.00
2023-04-30T12:44:15.897Z,0.90
2023-04-30T12:45:54.766Z,1.10
2023-04-30T12:47:26.649Z,0.70
2023-04-30T12:49:00.191Z,0.82
2023-04-30T12:50:32.045Z,1.00
2023-04-30T12:52:08.990Z,1.00
2023-04-30T12:53:47.281Z,1.10
2023-04-30T12:55:21.218Z,0.98
2023-04-30T12:57:06.760Z,0.93
2023-04-30T12:58:40.024Z,0.80
2023-04-30T13:00:12.566Z,1.20
2023-04-30T13:01:45.826Z,0.75
2023-04-30T13:03:21.109Z,1.10
2023-04-30T13:04:53.878Z,1.23
2023-04-30T13:06:25.772Z,0.80
2023-04-30T13:08:02.472Z,0.95
2023-04-30T13:09:35.411Z,0.90
2023-04-30T13:11:08.532Z,1.10
2023-04-30T13:12:41.218Z,1.00
2023-04-30T13:14:13.289Z,1.00
2023-04-30T13:15:45.229Z,0.90
2023-04-30T13:17:17.278Z,1.00
2023-04-30T13:18:49.052Z,1.00
2023-04-30T13:20:20.938Z,1.10
2023-04-30T13:21:52.940Z,1.05
2023-04-30T13:23:24.877Z,1.20
2023-04-30T13:24:56.892Z,1.02
2023-04-30T13:26:28.970Z,0.98
2023-04-30T13:28:00.827Z,1.27
2023-04-30T13:29:32.981Z,0.85
2023-04-30T13:31:04.870Z,0.90
2023-04-30T13:32:37.472Z,1.00
2023-04-30T13:34:09.993Z,0.90
2023-04-30T13:35:42.152Z,0.98
2023-04-30T13:37:14.042Z,1.02
2023-04-30T13:38:45.849Z,1.00
2023-04-30T13:40:17.911Z,0.80
2023-04-30T13:41:49.856Z,1.00
2023-04-30T13:43:21.640Z,1.00
2023-04-30T13:44:53.452Z,0.75
2023-04-30T13:46:25.321Z,0.98
2023-04-30T13:47:57.685Z,0.75
2023-04-30T13:49:29.563Z,0.95
2023-04-30T13:51:01.413Z,0.93
2023-04-30T13:52:33.211Z,0.90
2023-04-30T13:54:05.030Z,0.90
2023-04-30T13:55:36.851Z,1.00
2023-04-30T13:57:08.682Z,0.90
2023-04-30T13:58:40.647Z,0.70
2023-04-30T14:00:13.144Z,0.80
2023-04-30T14:01:45.052Z,0.85
2023-04-30T14:03:17.646Z,0.88
2023-04-30T14:05:02.061Z,0.82
2023-04-30T14:06:38.888Z,0.80
2023-04-30T14:08:10.992Z,0.90
2023-04-30T14:09:42.787Z,0.82
2023-04-30T14:11:14.770Z,0.90
2023-04-30T14:12:47.016Z,1.27
2023-04-30T14:14:18.826Z,0.80
2023-04-30T14:15:50.632Z,0.70
2023-04-30T14:17:22.546Z,1.00
2023-04-30T14:18:54.651Z,0.63
2023-04-30T14:20:26.902Z,0.90
2023-04-30T14:21:58.745Z,0.80
2023-04-30T14:23:30.621Z,0.70
2023-04-30T14:25:02.422Z,0.60
2023-04-30T14:26:34.310Z,1.38
2023-04-30T14:28:06.095Z,0.90
2023-04-30T14:29:37.952Z,0.80
2023-04-30T14:31:10.782Z,0.80
2023-04-30T14:32:42.620Z,0.70
2023-04-30T14:34:14.583Z,0.70
2023-04-30T14:35:47.613Z,0.50
2023-04-30T14:37:20.120Z,1.00
2023-04-30T14:38:51.918Z,0.77
2023-04-30T14:40:23.752Z,0.70
2023-04-30T14:41:55.564Z,1.00
2023-04-30T14:43:27.425Z,0.60
2023-04-30T14:44:59.222Z,0.82
2023-04-30T14:46:31.528Z,0.90
2023-04-30T14:48:05.650Z,0.73
2023-04-30T14:49:38.128Z,0.80
2023-04-30T14:51:10.042Z,1.73
2023-04-30T14:52:42.371Z,1.02
2023-04-30T14:54:14.248Z,0.70
2023-04-30T14:55:46.084Z,0.93
2023-04-30T14:57:18.760Z,0.98
2023-04-30T14:58:50.878Z,0.88
2023-04-30T15:00:22.794Z,0.70
2023-04-30T15:01:54.679Z,0.70
2023-04-30T15:03:26.715Z,0.80
2023-04-30T15:04:58.603Z,0.60
2023-04-30T15:06:31.226Z,0.90
2023-04-30T15:08:03.381Z,0.80
2023-04-30T15:09:35.199Z,0.73
2023-04-30T15:11:10.477Z,0.65
2023-04-30T15:12:42.373Z,0.80
2023-04-30T15:14:14.313Z,0.60
2023-04-30T15:15:47.316Z,0.95
2023-04-30T15:17:19.433Z,0.85
2023-04-30T15:18:51.308Z,0.90
2023-04-30T15:20:23.235Z,0.82
2023-04-30T15:21:55.025Z,0.85
2023-04-30T15:23:27.128Z,0.90
2023-04-30T15:24:59.390Z,0.73
2023-04-30T15:26:31.487Z,0.68
2023-04-30T15:28:03.551Z,0.82
2023-04-30T15:29:35.547Z,0.70
2023-04-30T15:31:07.451Z,0.90
2023-04-30T15:32:39.461Z,0.60
2023-04-30T15:34:11.306Z,1.00
2023-04-30T15:35:43.302Z,0.90
2023-04-30T15:37:15.152Z,0.70
2023-04-30T15:38:47.016Z,0.70
2023-04-30T15:40:18.910Z,0.70
2023-04-30T15:41:50.801Z,0.82
2023-04-30T15:43:22.597Z,0.70
2023-04-30T15:44:54.388Z,0.95
2023-04-30T15:46:26.410Z,0.90
2023-04-30T15:47:58.296Z,0.70
2023-04-30T15:49:30.177Z,0.70
2023-04-30T15:51:02.101Z,0.70
2023-04-30T15:52:34.318Z,0.80
2023-04-30T15:54:11.211Z,0.80
2023-04-30T15:55:43.465Z,0.70
2023-04-30T15:57:15.337Z,0.90
2023-04-30T15:58:47.098Z,0.90
2023-04-30T16:00:18.916Z,0.85
2023-04-30T16:01:50.825Z,0.93
2023-04-30T16:03:22.782Z,1.00
2023-04-30T16:04:54.699Z,1.00
2023-04-30T16:06:29.083Z,0.88
2023-04-30T16:08:01.231Z,0.63
2023-04-30T16:09:33.529Z,0.60
2023-04-30T16:11:05.335Z,1.00
2023-04-30T16:12:37.685Z,0.70
2023-04-30T16:14:09.552Z,0.85
2023-04-30T16:15:41.637Z,1.05
2023-04-30T16:17:13.565Z,0.73
2023-04-30T16:18:45.496Z,1.08
2023-04-30T16:20:17.802Z,1.20
2023-04-30T16:21:49.640Z,0.90
2023-04-30T16:23:21.422Z,0.80
2023-04-30T16:24:53.972Z,0.88
2023-04-30T16:26:25.787Z,0.75
2023-04-30T16:27:57.841Z,0.60
2023-04-30T16:29:29.984Z,0.80
2023-04-30T16:31:01.948Z,1.10
2023-04-30T16:32:33.933Z,1.10
2023-04-30T16:34:06.150Z,0.85
2023-04-30T16:35:38.018Z,1.10
2023-04-30T16:37:09.885Z,1.25
2023-04-30T16:38:41.999Z,0.80
2023-04-30T16:40:14.045Z,0.95
2023-04-30T16:41:47.043Z,1.00
2023-04-30T16:43:18.878Z,1.00
2023-04-30T16:44:50.707Z,0.98
2023-04-30T16:46:22.984Z,0.90
2023-04-30T16:47:54.819Z,1.30
2023-04-30T16:49:26.629Z,1.00
2023-04-30T16:50:58.531Z,0.98
2023-04-30T16:52:31.114Z,1.02
2023-04-30T16:54:02.992Z,1.00
2023-04-30T16:55:34.830Z,0.98
2023-04-30T16:57:07.417Z,1.10
2023-04-30T16:58:39.531Z,0.90
2023-04-30T17:00:14.301Z,1.00
2023-04-30T17:01:46.484Z,0.77
2023-04-30T17:03:18.408Z,1.13
2023-04-30T17:04:50.255Z,0.90
2023-04-30T17:06:22.840Z,0.80
2023-04-30T17:07:54.846Z,0.80
2023-04-30T17:09:26.660Z,1.25
2023-04-30T17:10:58.479Z,1.00
2023-04-30T17:12:30.394Z,0.90
2023-04-30T17:14:02.257Z,1.10
2023-04-30T17:15:34.131Z,1.27
2023-04-30T17:17:06.773Z,0.80
2023-04-30T17:18:38.597Z,0.90
2023-04-30T17:20:10.883Z,1.30
2023-04-30T17:21:42.798Z,1.02
2023-04-30T17:23:14.621Z,1.00
2023-04-30T17:24:47.083Z,1.15
2023-04-30T17:26:18.905Z,1.02
2023-04-30T17:27:50.741Z,1.00
2023-04-30T17:29:23.765Z,0.95
2023-04-30T17:30:55.731Z,1.33
2023-04-30T17:32:28.097Z,1.38
2023-04-30T17:34:00.396Z,1.15
2023-04-30T17:35:32.272Z,1.20
2023-04-30T17:37:04.338Z,1.10
2023-04-30T17:38:36.123Z,1.65
2023-04-30T17:40:08.561Z,1.30
2023-04-30T17:41:42.045Z,1.48
2023-04-30T17:43:14.076Z,1.92
2023-04-30T17:44:45.870Z,1.95
2023-04-30T17:46:17.847Z,2.00
2023-04-30T17:47:49.710Z,2.60
2023-04-30T17:49:21.539Z,3.00
2023-04-30T17:50:53.427Z,2.40
2023-04-30T17:52:26.326Z,2.55
2023-04-30T17:53:59.814Z,1.92
2023-04-30T17:55:31.601Z,1.88
2023-04-30T17:57:03.610Z,1.70
2023-04-30T17:58:36.168Z,1.75
2023-04-30T18:00:10.010Z,1.50
2023-04-30T18:01:47.767Z,1.92
2023-04-30T18:03:19.692Z,1.48
2023-04-30T18:04:51.894Z,1.85
2023-04-30T18:06:23.738Z,1.60
2023-04-30T18:07:55.844Z,1.73
2023-04-30T18:09:27.662Z,1.60
2023-04-30T18:10:59.543Z,1.55
2023-04-30T18:12:31.384Z,1.48
2023-04-30T18:14:05.364Z,1.60
2023-04-30T18:15:37.943Z,1.42
2023-04-30T18:17:09.754Z,1.70
2023-04-30T18:18:41.640Z,1.55
2023-04-30T18:20:13.425Z,1.30
2023-04-30T18:21:45.597Z,1.42
2023-04-30T18:23:17.450Z,1.48
2023-04-30T18:24:49.292Z,1.10
2023-04-30T18:26:21.968Z,1.50
2023-04-30T18:27:53.766Z,1.40
2023-04-30T18:29:26.189Z,1.52
2023-04-30T18:30:58.168Z,1.40
2023-04-30T18:32:30.034Z,1.45
2023-04-30T18:34:01.863Z,1.70
2023-04-30T18:35:34.473Z,2.17
2023-04-30T18:37:06.336Z,1.80
2023-04-30T18:38:39.090Z,2.03
2023-04-30T18:40:11.145Z,2.10
2023-04-30T18:41:43.518Z,2.10
2023-04-30T18:43:16.971Z,1.90
2023-04-30T18:44:48.934Z,1.90
2023-04-30T18:46:20.910Z,2.35
2023-04-30T18:47:52.976Z,2.35
2023-04-30T18:49:24.861Z,2.65
2023-04-30T18:50:57.448Z,2.95
2023-04-30T18:52:29.265Z,2.67
2023-04-30T18:54:01.625Z,2.67
2023-04-30T18:55:33.555Z,3.08
2023-04-30T18:57:06.070Z,2.80
2023-04-30T18:58:37.864Z,2.90
2023-04-30T19:00:12.442Z,2.60
2023-04-30T19:01:45.904Z,2.50
2023-04-30T19:03:17.798Z,2.35
2023-04-30T19:04:50.580Z,2.53
2023-04-30T19:06:22.669Z,2.42
2023-04-30T19:07:54.764Z,3.00
2023-04-30T19:09:26.524Z,3.28
2023-04-30T19:10:58.352Z,3.42
2023-04-30T19:12:31.122Z,3.85
2023-04-30T19:14:03.074Z,4.18
2023-04-30T19:15:35.837Z,4.40
2023-04-30T19:17:07.713Z,4.47
2023-04-30T19:18:39.943Z,4.55
2023-04-30T19:20:12.667Z,5.28
2023-04-30T19:21:44.493Z,5.10
2023-04-30T19:23:16.274Z,4.60
2023-04-30T19:24:48.097Z,4.10
2023-04-30T19:26:20.318Z,4.47
2023-04-30T19:27:52.078Z,4.15
2023-04-30T19:29:24.778Z,3.92
2023-04-30T19:30:56.881Z,3.75
2023-04-30T19:32:28.934Z,3.67
2023-04-30T19:34:03.954Z,3.67
2023-04-30T19:35:36.037Z,4.13
2023-04-30T19:37:07.807Z,4.70
2023-04-30T19:38:39.599Z,5.10
2023-04-30T19:40:12.200Z,5.03
2023-04-30T19:41:44.055Z,5.20
2023-04-30T19:43:16.410Z,5.07
2023-04-30T19:44:51.240Z,4.30
2023-04-30T19:46:23.261Z,3.85
2023-04-30T19:47:55.466Z,4.63
2023-04-30T19:49:27.409Z,4.05
2023-04-30T19:50:59.321Z,3.17
2023-04-30T19:52:31.309Z,3.25
2023-04-30T19:54:03.963Z,3.30
2023-04-30T19:55:35.799Z,3.10
2023-04-30T19:57:07.897Z,3.33
2023-04-30T19:58:39.740Z,3.08
2023-04-30T20:00:13.870Z,3.30
2023-04-30T20:01:45.918Z,3.50
2023-04-30T20:03:19.906Z,2.53
2023-04-30T20:04:51.777Z,2.67
2023-04-30T20:06:23.634Z,2.63
2023-04-30T20:07:55.542Z,2.47
2023-04-30T20:09:27.383Z,2.97
2023-04-30T20:11:00.798Z,3.63
2023-04-30T20:12:33.788Z,4.45
2023-04-30T20:14:05.721Z,5.70
2023-04-30T20:15:37.545Z,5.65
2023-04-30T20:17:09.428Z,5.38
2023-04-30T20:18:41.200Z,4.28
2023-04-30T20:20:13.572Z,4.70
2023-04-30T20:21:45.369Z,5.53
2023-04-30T20:23:17.940Z,4.40
2023-04-30T20:24:49.962Z,3.53
2023-04-30T20:26:21.984Z,3.25
2023-04-30T20:27:53.844Z,2.97
2023-04-30T20:29:25.615Z,3.38
2023-04-30T20:30:57.614Z,3.20
2023-04-30T20:32:29.522Z,3.45
2023-04-30T20:34:01.331Z,3.35
2023-04-30T20:35:33.116Z,3.83
2023-04-30T20:37:05.797Z,3.10
2023-04-30T20:38:37.627Z,3.60
2023-04-30T20:40:09.933Z,3.60
2023-04-30T20:41:42.324Z,3.50
2023-04-30T20:43:14.306Z,3.75
2023-04-30T20:44:47.273Z,3.45
2023-04-30T20:46:19.364Z,2.78